Time;durP1;ratioP1;P1;durP2;ratioP2;P2;SDS_P1;SDS_P2;PMS_P1;PMS_P2;Temp;Humidity;BMP_temperature;BMP_pressure;BME280_temperature;BME280_humidity;BME280_pressure;Samples;Min_cycle;Max_cycle;Signal;HPM_P1;HPM_P2
2023/03/14 00:00:09;;;;;;;4.28;1.38;;;;;;;;;;5035438;28;20039;-70
2023/03/14 00:02:36;;;;;;;9.07;1.52;;;;;;;;;;5035304;28;20500;-70
2023/03/14 00:05:06;;;;;;;6.53;1.52;;;;;;;;;;5035165;28;20036;-70
2023/03/14 00:07:39;;;;;;;7.20;1.23;;;;;;;;;;5035144;28;20036;-70
2023/03/14 00:10:10;;;;;;;8.38;1.95;;;;;;;;;;5034810;28;20390;-71
2023/03/14 00:12:36;;;;;;;9.48;1.30;;;;;;;;;;5035484;28;20037;-71
2023/03/14 00:15:04;;;;;;;4.85;1.10;;;;;;;;;;5034874;28;20041;-70
2023/03/14 00:17:32;;;;;;;4.68;1.40;;;;;;;;;;5034904;28;20025;-70
2023/03/14 00:20:04;;;;;;;10.05;1.27;;;;;;;;;;5034944;28;20017;-70
2023/03/14 00:22:31;;;;;;;8.82;1.40;;;;;;;;;;5034940;28;20363;-71
2023/03/14 00:24:57;;;;;;;6.90;1.60;;;;;;;;;;5034413;28;20018;-70
2023/03/14 00:27:24;;;;;;;11.05;1.30;;;;;;;;;;5035087;28;20037;-70
2023/03/14 00:29:50;;;;;;;7.10;1.55;;;;;;;;;;5035072;28;20014;-70
2023/03/14 00:32:17;;;;;;;9.48;1.65;;;;;;;;;;5034599;28;20033;-71
2023/03/14 00:34:43;;;;;;;7.40;1.60;;;;;;;;;;5034698;28;20032;-70
2023/03/14 00:37:09;;;;;;;7.13;1.42;;;;;;;;;;5032968;28;20039;-70
2023/03/14 00:39:36;;;;;;;8.10;1.52;;;;;;;;;;5034282;28;20032;-70
2023/03/14 00:42:02;;;;;;;12.20;1.67;;;;;;;;;;5034958;28;20478;-70
2023/03/14 00:44:28;;;;;;;11.27;1.20;;;;;;;;;;5034311;28;20502;-70
2023/03/14 00:46:56;;;;;;;7.90;1.48;;;;;;;;;;5034257;28;20053;-70
2023/03/14 00:49:23;;;;;;;7.90;1.52;;;;;;;;;;5033565;28;20030;-70
2023/03/14 00:51:51;;;;;;;11.25;2.22;;;;;;;;;;5034745;28;20029;-70
2023/03/14 00:54:18;;;;;;;8.63;1.95;;;;;;;;;;5034437;28;20017;-70
2023/03/14 00:56:44;;;;;;;12.30;1.65;;;;;;;;;;5034191;28;20030;-69
2023/03/14 00:59:10;;;;;;;9.95;1.60;;;;;;;;;;5034559;28;20026;-70
2023/03/14 01:01:37;;;;;;;5.35;1.30;;;;;;;;;;5034145;28;20030;-70
2023/03/14 01:04:03;;;;;;;13.82;2.13;;;;;;;;;;5034145;28;20052;-70
2023/03/14 01:06:30;;;;;;;9.88;1.80;;;;;;;;;;5033988;28;20033;-71
2023/03/14 01:08:56;;;;;;;11.00;2.58;;;;;;;;;;5033977;28;20027;-71
2023/03/14 01:11:24;;;;;;;13.95;2.05;;;;;;;;;;5034380;28;20018;-70
2023/03/14 01:13:51;;;;;;;10.48;1.90;;;;;;;;;;5034044;28;20474;-70
2023/03/14 01:16:18;;;;;;;12.80;2.63;;;;;;;;;;5033901;28;20044;-69
2023/03/14 01:18:45;;;;;;;17.25;2.45;;;;;;;;;;5033876;28;20029;-70
2023/03/14 01:21:16;;;;;;;12.00;2.28;;;;;;;;;;5033480;28;20036;-70
2023/03/14 01:23:42;;;;;;;;;;;;;;;;;;5034209;28;20013;-70
2023/03/14 01:26:10;;;;;;;10.23;1.75;;;;;;;;;;5034019;28;19905;-70
2023/03/14 01:28:36;;;;;;;13.32;2.03;;;;;;;;;;5034012;28;20029;-70
2023/03/14 01:31:03;;;;;;;14.52;1.98;;;;;;;;;;5033926;28;20030;-70
2023/03/14 01:33:30;;;;;;;11.00;2.20;;;;;;;;;;5033500;28;20017;-70
2023/03/14 01:35:56;;;;;;;13.75;2.30;;;;;;;;;;5033143;28;20440;-70
2023/03/14 01:38:22;;;;;;;9.10;1.73;;;;;;;;;;5033434;28;20042;-70
2023/03/14 01:40:49;;;;;;;12.20;2.13;;;;;;;;;;5033763;28;20028;-70
2023/03/14 01:43:17;;;;;;;17.25;2.65;;;;;;;;;;5033363;28;20441;-70
2023/03/14 01:45:58;;;;;;;13.13;2.20;;;;;;;;;;5033219;28;20037;-70
2023/03/14 01:48:26;;;;;;;10.88;1.73;;;;;;;;;;5033247;28;20027;-70
2023/03/14 01:50:52;;;;;;;14.30;2.25;;;;;;;;;;5031711;28;20495;-70
2023/03/14 01:53:21;;;;;;;15.30;2.30;;;;;;;;;;5033638;28;20034;-70
2023/03/14 01:55:50;;;;;;;13.05;2.03;;;;;;;;;;5033218;28;20079;-70
2023/03/14 01:58:17;;;;;;;19.50;2.75;;;;;;;;;;5033144;28;20014;-69
2023/03/14 02:00:43;;;;;;;10.82;2.13;;;;;;;;;;5033205;28;20030;-70
2023/03/14 02:03:16;;;;;;;9.82;1.63;;;;;;;;;;5033035;28;20071;-70
2023/03/14 02:05:44;;;;;;;12.43;1.80;;;;;;;;;;5064886;28;20037;-70
2023/03/14 02:08:12;;;;;;;11.50;1.70;;;;;;;;;;5032868;28;20028;-70
2023/03/14 02:10:39;;;;;;;9.88;1.63;;;;;;;;;;5033044;28;20033;-69
2023/03/14 02:13:06;;;;;;;9.23;1.80;;;;;;;;;;5032729;28;20029;-70
2023/03/14 02:15:33;;;;;;;9.20;1.83;;;;;;;;;;5032820;28;20044;-70
2023/03/14 02:18:00;;;;;;;7.63;1.50;;;;;;;;;;5032858;28;20478;-69
2023/03/14 02:20:26;;;;;;;7.50;1.88;;;;;;;;;;5032327;28;20022;-70
2023/03/14 02:22:53;;;;;;;7.70;1.42;;;;;;;;;;5032547;28;20432;-69
2023/03/14 02:25:19;;;;;;;8.75;1.65;;;;;;;;;;5032864;28;20028;-70
2023/03/14 02:27:47;;;;;;;7.65;1.38;;;;;;;;;;5032635;28;20082;-70
2023/03/14 02:30:20;;;;;;;15.73;1.80;;;;;;;;;;5032647;28;20565;-69
2023/03/14 02:32:48;;;;;;;8.43;1.35;;;;;;;;;;5032500;28;20412;-70
2023/03/14 02:35:21;;;;;;;12.65;2.00;;;;;;;;;;5032127;28;20398;-69
2023/03/14 02:37:55;;;;;;;8.00;1.60;;;;;;;;;;5032465;28;20020;-70
2023/03/14 02:40:22;;;;;;;8.45;1.63;;;;;;;;;;5032533;28;20477;-70
2023/03/14 02:42:48;;;;;;;9.25;1.85;;;;;;;;;;5032246;28;20059;-70
2023/03/14 02:45:14;;;;;;;13.85;1.50;;;;;;;;;;5032348;28;20033;-69
2023/03/14 02:47:46;;;;;;;13.23;1.70;;;;;;;;;;5032309;28;20395;-69
2023/03/14 02:50:17;;;;;;;10.90;1.70;;;;;;;;;;5031951;28;20025;-70
2023/03/14 02:52:44;;;;;;;8.20;1.85;;;;;;;;;;5032354;28;20091;-70
2023/03/14 02:55:10;;;;;;;10.52;1.83;;;;;;;;;;5032591;28;20044;-70
2023/03/14 02:57:36;;;;;;;10.52;1.92;;;;;;;;;;5031174;28;20033;-70
2023/03/14 03:00:06;;;;;;;11.10;2.10;;;;;;;;;;5032321;28;20470;-70
2023/03/14 03:02:32;;;;;;;16.58;2.22;;;;;;;;;;5031822;28;20032;-70
2023/03/14 03:04:59;;;;;;;10.75;2.55;;;;;;;;;;5032029;28;20036;-70
2023/03/14 03:07:25;;;;;;;12.57;2.08;;;;;;;;;;5032127;28;20043;-70
2023/03/14 03:09:51;;;;;;;12.35;2.10;;;;;;;;;;5032190;28;20470;-69
2023/03/14 03:12:17;;;;;;;13.60;2.25;;;;;;;;;;5031742;28;20025;-70
2023/03/14 03:14:44;;;;;;;17.80;2.03;;;;;;;;;;5031832;28;20521;-69
2023/03/14 03:17:10;;;;;;;9.57;1.90;;;;;;;;;;5031637;28;20045;-70
2023/03/14 03:19:36;;;;;;;8.95;1.50;;;;;;;;;;5032238;28;20079;-69
2023/03/14 03:22:03;;;;;;;9.48;1.60;;;;;;;;;;5032042;28;20067;-70
2023/03/14 03:24:29;;;;;;;6.18;1.40;;;;;;;;;;5030993;28;20086;-69
2023/03/14 03:26:55;;;;;;;6.18;1.05;;;;;;;;;;5031939;28;20026;-70
2023/03/14 03:29:22;;;;;;;8.10;1.17;;;;;;;;;;5032530;28;20037;-70
2023/03/14 03:31:48;;;;;;;8.43;1.40;;;;;;;;;;5031557;28;20036;-70
2023/03/14 03:34:15;;;;;;;5.60;1.10;;;;;;;;;;5031764;28;20063;-70
2023/03/14 03:36:41;;;;;;;4.03;0.70;;;;;;;;;;5031780;28;20040;-70
2023/03/14 03:39:08;;;;;;;4.82;1.10;;;;;;;;;;5031639;28;20382;-70
2023/03/14 03:41:34;;;;;;;4.55;0.90;;;;;;;;;;5031798;28;20026;-70
2023/03/14 03:44:00;;;;;;;5.78;1.00;;;;;;;;;;5031626;28;20467;-71
2023/03/14 03:46:27;;;;;;;3.40;0.73;;;;;;;;;;5031343;28;20033;-70
2023/03/14 03:48:57;;;;;;;5.75;1.10;;;;;;;;;;5031636;28;20030;-70
2023/03/14 03:51:23;;;;;;;3.00;0.73;;;;;;;;;;5032319;28;20041;-70
2023/03/14 03:53:50;;;;;;;5.72;1.10;;;;;;;;;;5031680;28;20025;-70
2023/03/14 03:56:16;;;;;;;3.33;1.02;;;;;;;;;;5030583;28;20041;-70
2023/03/14 03:58:42;;;;;;;6.85;1.17;;;;;;;;;;5031599;28;20352;-70
2023/03/14 04:01:10;;;;;;;4.25;1.35;;;;;;;;;;5031450;28;20033;-70
2023/03/14 04:03:38;;;;;;;4.22;1.00;;;;;;;;;;5031544;28;20018;-70
2023/03/14 04:06:06;;;;;;;6.50;1.10;;;;;;;;;;5031527;28;20029;-70
2023/03/14 04:08:32;;;;;;;5.88;0.90;;;;;;;;;;5031538;28;20056;-70
2023/03/14 04:10:59;;;;;;;5.70;1.30;;;;;;;;;;5031677;28;20033;-70
2023/03/14 04:13:26;;;;;;;2.28;0.70;;;;;;;;;;5031448;28;20026;-70
2023/03/14 04:15:53;;;;;;;4.70;0.80;;;;;;;;;;5031112;28;20059;-70
2023/03/14 04:18:20;;;;;;;4.70;0.80;;;;;;;;;;5031373;28;20021;-69
2023/03/14 04:20:50;;;;;;;4.10;0.77;;;;;;;;;;5031341;28;20397;-70
2023/03/14 04:23:17;;;;;;;2.60;0.88;;;;;;;;;;5032059;28;20025;-70
2023/03/14 04:25:43;;;;;;;3.88;1.02;;;;;;;;;;5034847;28;20426;-70
2023/03/14 04:28:09;;;;;;;8.00;0.98;;;;;;;;;;5033567;28;20026;-70
2023/03/14 04:30:36;;;;;;;3.78;0.77;;;;;;;;;;5034597;28;20432;-69
2023/03/14 04:33:02;;;;;;;5.18;0.93;;;;;;;;;;5034905;28;20028;-69
2023/03/14 04:35:30;;;;;;;5.90;0.75;;;;;;;;;;5033594;28;20037;-70
2023/03/14 04:37:57;;;;;;;5.57;0.85;;;;;;;;;;5034842;28;20022;-70
2023/03/14 04:40:23;;;;;;;6.10;1.10;;;;;;;;;;5034554;28;20025;-70
2023/03/14 04:42:49;;;;;;;4.13;1.00;;;;;;;;;;5034430;28;20025;-69
2023/03/14 04:45:16;;;;;;;5.30;0.70;;;;;;;;;;5034135;28;20041;-70
2023/03/14 04:47:42;;;;;;;3.38;0.82;;;;;;;;;;5035239;28;20035;-70
2023/03/14 04:50:09;;;;;;;3.70;0.75;;;;;;;;;;5034487;28;20024;-70
2023/03/14 04:52:35;;;;;;;4.93;0.82;;;;;;;;;;5034445;28;20397;-70
2023/03/14 04:55:02;;;;;;;4.47;1.00;;;;;;;;;;5034485;28;20028;-70
2023/03/14 04:57:28;;;;;;;3.67;0.80;;;;;;;;;;5034273;28;20379;-70
2023/03/14 04:59:54;;;;;;;4.35;1.10;;;;;;;;;;5033972;28;20027;-69
2023/03/14 05:02:21;;;;;;;5.20;0.90;;;;;;;;;;5034473;28;20034;-70
2023/03/14 05:04:47;;;;;;;1.95;0.60;;;;;;;;;;5034159;28;20032;-70
2023/03/14 05:07:13;;;;;;;2.83;0.70;;;;;;;;;;5034272;28;20022;-70
2023/03/14 05:09:39;;;;;;;2.40;0.55;;;;;;;;;;5033965;28;20416;-69
2023/03/14 05:12:06;;;;;;;1.50;0.35;;;;;;;;;;5034339;28;20083;-70
2023/03/14 05:14:32;;;;;;;2.53;0.40;;;;;;;;;;5033915;28;20028;-70
2023/03/14 05:16:59;;;;;;;2.38;0.47;;;;;;;;;;5033779;28;20417;-70
2023/03/14 05:19:25;;;;;;;3.10;0.47;;;;;;;;;;5033933;28;20014;-69
2023/03/14 05:21:51;;;;;;;2.60;0.47;;;;;;;;;;5033804;28;20099;-70
2023/03/14 05:24:18;;;;;;;2.90;0.60;;;;;;;;;;5034027;28;20024;-70
2023/03/14 05:26:44;;;;;;;4.25;0.65;;;;;;;;;;5033911;28;20025;-69
2023/03/14 05:29:10;;;;;;;7.55;0.93;;;;;;;;;;5033525;28;20090;-70
2023/03/14 05:31:37;;;;;;;2.78;0.40;;;;;;;;;;5033754;28;20452;-70
2023/03/14 05:34:03;;;;;;;4.07;0.73;;;;;;;;;;5033149;28;20024;-70
2023/03/14 05:36:29;;;;;;;1.65;0.47;;;;;;;;;;5033520;28;20512;-70
2023/03/14 05:38:55;;;;;;;1.63;0.40;;;;;;;;;;5033726;28;20017;-69
2023/03/14 05:41:22;;;;;;;2.65;0.73;;;;;;;;;;5033577;28;20028;-70
2023/03/14 05:43:48;;;;;;;3.42;0.50;;;;;;;;;;5033118;28;20383;-70
2023/03/14 05:46:14;;;;;;;1.38;0.30;;;;;;;;;;5033544;28;20029;-70
2023/03/14 05:48:41;;;;;;;1.13;0.25;;;;;;;;;;5033455;28;20035;-69
2023/03/14 05:51:07;;;;;;;1.60;0.30;;;;;;;;;;5033290;28;20017;-69
2023/03/14 05:53:33;;;;;;;1.60;0.35;;;;;;;;;;5033198;28;20360;-70
2023/03/14 05:56:00;;;;;;;0.55;0.20;;;;;;;;;;5033279;28;20041;-70
2023/03/14 05:58:26;;;;;;;2.97;0.40;;;;;;;;;;5032835;28;20387;-70
2023/03/14 06:00:52;;;;;;;1.52;0.40;;;;;;;;;;5033057;28;20029;-70
2023/03/14 06:03:18;;;;;;;1.10;0.30;;;;;;;;;;5033030;28;20397;-70
2023/03/14 06:05:45;;;;;;;1.33;0.50;;;;;;;;;;5033031;28;20524;-70
2023/03/14 06:08:11;;;;;;;1.95;0.40;;;;;;;;;;5032913;28;20029;-70
2023/03/14 06:10:37;;;;;;;1.95;0.60;;;;;;;;;;5033057;28;20031;-70
2023/03/14 06:13:04;;;;;;;2.30;0.65;;;;;;;;;;5032471;28;20021;-70
2023/03/14 06:15:30;;;;;;;3.47;1.00;;;;;;;;;;5032700;28;20478;-70
2023/03/14 06:17:56;;;;;;;4.50;0.75;;;;;;;;;;5033125;28;20031;-71
2023/03/14 06:20:23;;;;;;;5.10;0.93;;;;;;;;;;5032839;28;20024;-71
2023/03/14 06:22:49;;;;;;;4.75;0.90;;;;;;;;;;5032873;28;20034;-70
2023/03/14 06:25:15;;;;;;;3.60;0.90;;;;;;;;;;5032732;28;20029;-70
2023/03/14 06:27:42;;;;;;;3.45;0.98;;;;;;;;;;5032220;28;20486;-69
2023/03/14 06:30:09;;;;;;;5.03;1.67;;;;;;;;;;5032823;28;20033;-70
2023/03/14 06:32:35;;;;;;;4.65;0.90;;;;;;;;;;5032678;28;20032;-70
2023/03/14 06:35:01;;;;;;;4.35;1.40;;;;;;;;;;5032377;28;20432;-70
2023/03/14 06:37:28;;;;;;;4.88;1.20;;;;;;;;;;5032705;28;20025;-70
2023/03/14 06:39:55;;;;;;;5.82;1.10;;;;;;;;;;5031979;28;20393;-70
2023/03/14 06:42:21;;;;;;;5.22;1.13;;;;;;;;;;5032742;28;20033;-70
2023/03/14 06:44:48;;;;;;;3.08;1.10;;;;;;;;;;5032111;28;20049;-70
2023/03/14 06:47:14;;;;;;;3.35;0.70;;;;;;;;;;5031880;28;20025;-70
2023/03/14 06:49:40;;;;;;;1.90;0.50;;;;;;;;;;5032526;28;20025;-70
2023/03/14 06:52:07;;;;;;;3.08;0.75;;;;;;;;;;5032261;28;20029;-70
2023/03/14 06:54:33;;;;;;;2.28;0.68;;;;;;;;;;5031935;28;20021;-71
2023/03/14 06:56:59;;;;;;;3.25;0.88;;;;;;;;;;5032055;28;20052;-69
2023/03/14 06:59:26;;;;;;;10.15;1.30;;;;;;;;;;5032124;28;20029;-70
2023/03/14 07:01:52;;;;;;;10.23;1.23;;;;;;;;;;5032118;28;20041;-70
2023/03/14 07:04:18;;;;;;;6.10;0.95;;;;;;;;;;5031777;28;20482;-70
2023/03/14 07:06:46;;;;;;;5.22;1.00;;;;;;;;;;5031663;28;20030;-70
2023/03/14 07:09:13;;;;;;;11.20;1.30;;;;;;;;;;5030409;28;20869;-70
2023/03/14 07:11:39;;;;;;;8.95;1.80;;;;;;;;;;5031483;28;20026;-70
2023/03/14 07:14:06;;;;;;;9.18;1.30;;;;;;;;;;5030217;28;20025;-70
2023/03/14 07:16:32;;;;;;;4.95;1.27;;;;;;;;;;5025263;28;20033;-70
2023/03/14 07:19:00;;;;;;;7.07;1.55;;;;;;;;;;5030781;28;20081;-70
2023/03/14 07:21:26;;;;;;;9.55;1.25;;;;;;;;;;5031057;28;20030;-70
2023/03/14 07:23:52;;;;;;;9.35;1.70;;;;;;;;;;5030984;28;20026;-71
2023/03/14 07:26:18;;;;;;;8.98;1.63;;;;;;;;;;5030629;28;20098;-71
2023/03/14 07:28:45;;;;;;;15.25;2.63;;;;;;;;;;5028555;28;20043;-70
2023/03/14 07:31:11;;;;;;;8.98;1.65;;;;;;;;;;5030889;28;20028;-70
2023/03/14 07:33:38;;;;;;;10.63;2.20;;;;;;;;;;5030761;28;20028;-70
2023/03/14 07:36:04;;;;;;;10.13;2.38;;;;;;;;;;5029885;28;20033;-70
2023/03/14 07:38:31;;;;;;;9.25;1.80;;;;;;;;;;5059796;28;20025;-70
2023/03/14 07:41:01;;;;;;;8.32;1.85;;;;;;;;;;5031657;28;20043;-69
2023/03/14 07:43:27;;;;;;;13.70;2.50;;;;;;;;;;5030840;28;20425;-70
2023/03/14 07:45:53;;;;;;;11.88;1.92;;;;;;;;;;5030188;28;20415;-71
2023/03/14 07:48:21;;;;;;;11.27;2.65;;;;;;;;;;5029029;28;20025;-70
2023/03/14 07:50:55;;;;;;;12.93;2.60;;;;;;;;;;5031415;28;20477;-70
2023/03/14 07:53:21;;;;;;;14.27;2.20;;;;;;;;;;5031147;28;20033;-70
2023/03/14 07:55:47;;;;;;;11.73;2.58;;;;;;;;;;5031104;28;20037;-70
2023/03/14 07:58:14;;;;;;;11.70;2.20;;;;;;;;;;5033201;28;20055;-70
2023/03/14 08:00:40;;;;;;;13.45;2.60;;;;;;;;;;5034988;28;20486;-70
2023/03/14 08:03:07;;;;;;;12.00;2.30;;;;;;;;;;5033269;28;20021;-70
2023/03/14 08:05:36;;;;;;;13.95;2.22;;;;;;;;;;5035045;28;20389;-70
2023/03/14 08:08:03;;;;;;;14.35;2.20;;;;;;;;;;5034461;28;20528;-70
2023/03/14 08:10:29;;;;;;;15.23;2.47;;;;;;;;;;5034879;28;20512;-70
2023/03/14 08:12:57;;;;;;;11.65;2.13;;;;;;;;;;5034485;28;20029;-70
2023/03/14 08:15:24;;;;;;;10.52;1.90;;;;;;;;;;5032467;28;20025;-70
2023/03/14 08:17:51;;;;;;;9.45;2.03;;;;;;;;;;5036674;28;20031;-70
2023/03/14 08:20:17;;;;;;;11.10;2.20;;;;;;;;;;5033060;28;20397;-70
2023/03/14 08:22:44;;;;;;;6.03;1.30;;;;;;;;;;5032429;28;20033;-70
2023/03/14 08:25:10;;;;;;;11.50;1.33;;;;;;;;;;5033764;28;20037;-70
2023/03/14 08:27:38;;;;;;;6.35;1.10;;;;;;;;;;5033399;28;20033;-70
2023/03/14 08:30:15;;;;;;;6.85;1.20;;;;;;;;;;5033209;28;20032;-71
2023/03/14 08:32:42;;;;;;;2.95;0.50;;;;;;;;;;5033165;28;20026;-70
2023/03/14 08:35:08;;;;;;;2.70;0.93;;;;;;;;;;5032843;28;20029;-71
2023/03/14 08:37:35;;;;;;;2.22;0.68;;;;;;;;;;5033232;28;20021;-70
2023/03/14 08:40:06;;;;;;;2.65;0.70;;;;;;;;;;5033251;28;20029;-72
2023/03/14 08:42:33;;;;;;;1.83;1.00;;;;;;;;;;5032921;28;20099;-71
2023/03/14 08:44:59;;;;;;;3.72;1.10;;;;;;;;;;5033059;28;20284;-71
2023/03/14 08:47:26;;;;;;;3.67;0.90;;;;;;;;;;5032626;28;20036;-71
2023/03/14 08:49:52;;;;;;;3.95;0.95;;;;;;;;;;5032859;28;20029;-71
2023/03/14 08:52:18;;;;;;;6.05;1.10;;;;;;;;;;5033080;28;20295;-71
2023/03/14 08:54:45;;;;;;;5.68;1.20;;;;;;;;;;5032700;28;20021;-71
2023/03/14 08:57:11;;;;;;;5.63;1.40;;;;;;;;;;5033038;28;20034;-71
2023/03/14 08:59:38;;;;;;;2.60;1.02;;;;;;;;;;5032205;28;20044;-71
2023/03/14 09:02:04;;;;;;;3.75;1.27;;;;;;;;;;5033030;28;20033;-70
2023/03/14 09:04:31;;;;;;;8.18;1.50;;;;;;;;;;5032571;28;20036;-71
2023/03/14 09:07:00;;;;;;;8.60;1.67;;;;;;;;;;5032697;28;20033;-71
2023/03/14 09:09:27;;;;;;;5.50;1.25;;;;;;;;;;5031743;28;20029;-70
2023/03/14 09:11:53;;;;;;;10.60;2.15;;;;;;;;;;5032829;28;20025;-71
2023/03/14 09:14:19;;;;;;;7.80;1.60;;;;;;;;;;5032630;28;20040;-70
2023/03/14 09:16:46;;;;;;;9.13;2.10;;;;;;;;;;5032465;28;20037;-70
2023/03/14 09:19:12;;;;;;;7.65;1.77;;;;;;;;;;5032689;28;20030;-71
2023/03/14 09:21:38;;;;;;;5.03;1.20;;;;;;;;;;5032328;28;20033;-72
2023/03/14 09:24:05;;;;;;;5.00;1.50;;;;;;;;;;5032231;28;20013;-72
2023/03/14 09:26:32;;;;;;;9.23;2.00;;;;;;;;;;5030927;28;20033;-71
2023/03/14 09:28:58;;;;;;;8.00;1.58;;;;;;;;;;5032019;28;20486;-72
2023/03/14 09:31:24;;;;;;;6.60;1.40;;;;;;;;;;5032232;28;20047;-71
2023/03/14 09:33:51;;;;;;;3.40;0.57;;;;;;;;;;5032162;28;20082;-72
2023/03/14 09:36:17;;;;;;;3.08;0.90;;;;;;;;;;5032395;28;20041;-71
2023/03/14 09:38:43;;;;;;;5.35;0.77;;;;;;;;;;5032012;28;20029;-71
2023/03/14 09:41:22;;;;;;;3.90;0.77;;;;;;;;;;5032354;28;20487;-72
2023/03/14 09:43:50;;;;;;;3.80;0.70;;;;;;;;;;5030980;28;20038;-69
2023/03/14 09:46:17;;;;;;;2.95;0.60;;;;;;;;;;5032210;28;20482;-70
2023/03/14 09:48:44;;;;;;;1.90;0.50;;;;;;;;;;5032189;28;20026;-70
2023/03/14 09:51:16;;;;;;;1.27;0.70;;;;;;;;;;5031314;28;20029;-70
2023/03/14 09:53:44;;;;;;;3.08;0.60;;;;;;;;;;5032103;28;20044;-69
2023/03/14 09:56:12;;;;;;;2.72;1.00;;;;;;;;;;5031532;28;20043;-70
2023/03/14 09:58:40;;;;;;;1.50;0.50;;;;;;;;;;5031612;28;20029;-70
2023/03/14 10:01:11;;;;;;;2.75;0.70;;;;;;;;;;5031879;28;20029;-70
2023/03/14 10:03:37;;;;;;;3.28;0.65;;;;;;;;;;5031361;28;20402;-70
2023/03/14 10:06:11;;;;;;;3.90;0.90;;;;;;;;;;5032223;28;20030;-69
2023/03/14 10:08:39;;;;;;;3.38;1.10;;;;;;;;;;5031764;28;20500;-69
2023/03/14 10:11:07;;;;;;;5.95;1.33;;;;;;;;;;5031116;28;20041;-71
2023/03/14 10:13:33;;;;;;;5.63;1.63;;;;;;;;;;5031616;28;20020;-70
2023/03/14 10:16:01;;;;;;;6.30;1.52;;;;;;;;;;5031773;28;20029;-71
2023/03/14 10:18:29;;;;;;;10.50;2.05;;;;;;;;;;5031262;28;20044;-72
2023/03/14 10:21:03;;;;;;;9.05;2.00;;;;;;;;;;5031726;28;20032;-70
2023/03/14 10:23:32;;;;;;;8.18;2.10;;;;;;;;;;5030902;28;20096;-71
2023/03/14 10:26:00;;;;;;;5.45;1.70;;;;;;;;;;5031640;28;20036;-71
2023/03/14 10:28:26;;;;;;;8.70;2.10;;;;;;;;;;5032262;28;20033;-70
2023/03/14 10:30:53;;;;;;;7.18;2.20;;;;;;;;;;5031254;28;20040;-71
2023/03/14 10:33:25;;;;;;;6.13;1.80;;;;;;;;;;5030895;28;20021;-71
2023/03/14 10:35:57;;;;;;;8.68;1.90;;;;;;;;;;5030051;28;20032;-71
2023/03/14 10:38:25;;;;;;;9.80;2.55;;;;;;;;;;5031039;28;20393;-70
2023/03/14 10:40:53;;;;;;;7.47;2.42;;;;;;;;;;5031169;28;20025;-71
2023/03/14 10:43:32;;;;;;;8.68;2.22;;;;;;;;;;5034538;28;20043;-71
2023/03/14 10:46:17;;;;;;;7.97;2.15;;;;;;;;;;5032983;28;20083;-71
2023/03/14 10:48:45;;;;;;;12.07;2.63;;;;;;;;;;5036621;28;20494;-71
2023/03/14 10:51:17;;;;;;;13.38;3.17;;;;;;;;;;5050291;28;20043;-71
2023/03/14 10:53:48;;;;;;;11.77;2.80;;;;;;;;;;5039486;28;20363;-70
2023/03/14 10:56:15;;;;;;;10.32;2.63;;;;;;;;;;5030955;28;20409;-71
2023/03/14 10:58:44;;;;;;;11.40;3.13;;;;;;;;;;5031008;28;20017;-71
2023/03/14 11:01:29;;;;;;;11.88;3.08;;;;;;;;;;5040065;28;20013;-71
2023/03/14 11:04:01;;;;;;;12.15;2.22;;;;;;;;;;5035849;28;20383;-71
2023/03/14 11:06:43;;;;;;;13.35;2.63;;;;;;;;;;5029344;28;20067;-71
2023/03/14 11:09:18;;;;;;;11.98;2.65;;;;;;;;;;5030154;28;20018;-70
2023/03/14 11:11:47;;;;;;;8.60;2.45;;;;;;;;;;5030175;28;20424;-70
2023/03/14 11:14:17;;;;;;;11.45;2.92;;;;;;;;;;5030736;28;20393;-71
2023/03/14 11:16:52;;;;;;;12.63;3.17;;;;;;;;;;5030401;28;20576;-70
2023/03/14 11:19:22;;;;;;;10.85;3.15;;;;;;;;;;5030741;28;20048;-71
2023/03/14 11:22:06;;;;;;;11.30;3.80;;;;;;;;;;5030764;28;20021;-71
2023/03/14 11:24:42;;;;;;;15.00;4.88;;;;;;;;;;5030855;28;20026;-71
2023/03/14 11:27:18;;;;;;;15.20;3.58;;;;;;;;;;5030854;28;20021;-71
2023/03/14 11:30:03;;;;;;;16.23;2.83;;;;;;;;;;5030654;28;20033;-71
2023/03/14 11:32:45;;;;;;;11.00;3.00;;;;;;;;;;5031649;28;20033;-71
2023/03/14 11:35:30;;;;;;;15.50;4.07;;;;;;;;;;5034671;28;20030;-71
2023/03/14 11:38:00;;;;;;;20.30;4.53;;;;;;;;;;5034752;28;20027;-71
2023/03/14 11:40:28;;;;;;;12.88;3.95;;;;;;;;;;5034637;28;20490;-71
2023/03/14 11:43:09;;;;;;;11.77;3.20;;;;;;;;;;5034176;28;20029;-71
2023/03/14 11:45:37;;;;;;;12.18;4.60;;;;;;;;;;5034273;28;20112;-71
2023/03/14 11:48:22;;;;;;;15.52;5.60;;;;;;;;;;5034472;28;20025;-71
2023/03/14 11:50:52;;;;;;;17.90;6.57;;;;;;;;;;5034365;28;20500;-71
2023/03/14 11:53:18;;;;;;;12.82;3.88;;;;;;;;;;5034399;28;20017;-71
2023/03/14 11:55:45;;;;;;;14.93;4.50;;;;;;;;;;5034361;28;20502;-71
2023/03/14 11:58:17;;;;;;;14.13;4.68;;;;;;;;;;5034244;28;20025;-71
2023/03/14 12:00:45;;;;;;;11.02;4.57;;;;;;;;;;5034202;28;20044;-71
2023/03/14 12:03:24;;;;;;;11.20;3.65;;;;;;;;;;5032980;28;20029;-72
2023/03/14 12:06:05;;;;;;;11.48;3.42;;;;;;;;;;5034372;28;20034;-71
2023/03/14 12:08:41;;;;;;;8.00;2.47;;;;;;;;;;5034336;28;20078;-71
2023/03/14 12:11:19;;;;;;;6.35;2.00;;;;;;;;;;5034081;28;20086;-71
2023/03/14 12:13:47;;;;;;;11.75;2.25;;;;;;;;;;5033807;28;20025;-71
2023/03/14 12:16:23;;;;;;;6.47;1.50;;;;;;;;;;5034122;28;20037;-71
2023/03/14 12:18:50;;;;;;;7.90;1.75;;;;;;;;;;5033604;28;20028;-71
2023/03/14 12:21:16;;;;;;;4.35;1.27;;;;;;;;;;5033700;28;20031;-71
2023/03/14 12:23:45;;;;;;;3.38;1.30;;;;;;;;;;5033833;28;20404;-71
2023/03/14 12:26:11;;;;;;;5.75;1.50;;;;;;;;;;5033915;28;20486;-71
2023/03/14 12:28:38;;;;;;;4.82;1.70;;;;;;;;;;5033410;28;20389;-70
2023/03/14 12:31:25;;;;;;;7.43;2.90;;;;;;;;;;5033674;28;20440;-71
2023/03/14 12:34:03;;;;;;;6.90;3.50;;;;;;;;;;5032495;28;20083;-70
2023/03/14 12:36:50;;;;;;;8.05;1.80;;;;;;;;;;5028887;28;20030;-69
2023/03/14 12:39:25;;;;;;;4.53;1.90;;;;;;;;;;5023768;28;20078;-70
2023/03/14 12:41:53;;;;;;;5.82;1.70;;;;;;;;;;5037430;28;20379;-69
2023/03/14 12:44:31;;;;;;;7.18;1.40;;;;;;;;;;5032153;28;20056;-69
2023/03/14 12:46:58;;;;;;;11.45;1.45;;;;;;;;;;5040593;28;20028;-70
2023/03/14 12:49:37;;;;;;;3.30;1.27;;;;;;;;;;5032332;28;20498;-71
2023/03/14 12:52:14;;;;;;;7.68;1.60;;;;;;;;;;5032133;28;20013;-71
2023/03/14 12:55:00;;;;;;;2.72;1.27;;;;;;;;;;5032481;28;20036;-71
2023/03/14 12:57:32;;;;;;;5.32;1.38;;;;;;;;;;5032473;28;20036;-71
2023/03/14 13:00:00;;;;;;;4.75;1.25;;;;;;;;;;5032983;28;20025;-71
2023/03/14 13:02:26;;;;;;;3.63;1.00;;;;;;;;;;5032985;28;20025;-70
2023/03/14 13:05:13;;;;;;;3.47;1.42;;;;;;;;;;5032713;28;20397;-70
2023/03/14 13:07:48;;;;;;;1.95;0.90;;;;;;;;;;5033330;28;20032;-71
2023/03/14 13:10:29;;;;;;;3.20;1.30;;;;;;;;;;5032249;28;20025;-70
2023/03/14 13:12:55;;;;;;;2.53;0.98;;;;;;;;;;5031815;28;20018;-72
2023/03/14 13:15:33;;;;;;;4.55;1.38;;;;;;;;;;5031932;28;20033;-71
2023/03/14 13:18:12;;;;;;;4.90;1.10;;;;;;;;;;5032644;28;20045;-71
2023/03/14 13:20:42;;;;;;;4.77;1.60;;;;;;;;;;5031689;28;20032;-71
2023/03/14 13:23:29;;;;;;;4.30;1.30;;;;;;;;;;5032490;28;20021;-72
2023/03/14 13:25:55;;;;;;;5.22;1.52;;;;;;;;;;5032268;28;20026;-71
2023/03/14 13:28:22;;;;;;;7.47;1.40;;;;;;;;;;5031912;28;20021;-71
2023/03/14 13:30:50;;;;;;;3.55;1.10;;;;;;;;;;5032399;28;20029;-71
2023/03/14 13:33:18;;;;;;;3.58;0.90;;;;;;;;;;5032242;28;20029;-71
2023/03/14 13:35:50;;;;;;;2.53;0.90;;;;;;;;;;5031946;28;20028;-71
2023/03/14 13:38:21;;;;;;;8.00;1.25;;;;;;;;;;5032193;28;20029;-72
2023/03/14 13:40:47;;;;;;;;;;;;;;;;;;5032350;28;20084;-71
2023/03/14 13:43:30;;;;;;;2.95;1.05;;;;;;;;;;5031643;28;19913;-71
2023/03/14 13:46:03;;;;;;;3.03;0.85;;;;;;;;;;5032163;28;20410;-72
2023/03/14 13:48:30;;;;;;;4.65;1.23;;;;;;;;;;5032348;28;20031;-71
2023/03/14 13:51:06;;;;;;;4.35;1.25;;;;;;;;;;5031699;28;20071;-71
2023/03/14 13:53:42;;;;;;;5.18;1.33;;;;;;;;;;5032035;28;20082;-72
2023/03/14 13:56:10;;;;;;;3.40;1.42;;;;;;;;;;5031055;28;20063;-71
2023/03/14 13:58:37;;;;;;;3.42;1.05;;;;;;;;;;5031825;28;20018;-72
2023/03/14 14:01:12;;;;;;;4.90;1.65;;;;;;;;;;5031718;28;20404;-71
2023/03/14 14:03:40;;;;;;;2.75;0.90;;;;;;;;;;5031631;28;20022;-71
2023/03/14 14:06:30;;;;;;;5.90;1.52;;;;;;;;;;5031705;28;20022;-72
2023/03/14 14:08:57;;;;;;;3.55;1.08;;;;;;;;;;5032993;28;20044;-72
2023/03/14 14:11:43;;;;;;;4.18;1.23;;;;;;;;;;5030796;28;20029;-72
2023/03/14 14:14:13;;;;;;;3.95;0.93;;;;;;;;;;5031451;28;20039;-72
2023/03/14 14:16:39;;;;;;;7.00;1.73;;;;;;;;;;5030983;28;20029;-72
2023/03/14 14:19:06;;;;;;;2.60;0.80;;;;;;;;;;5031964;28;20026;-72
2023/03/14 14:21:32;;;;;;;2.35;0.70;;;;;;;;;;5031154;28;20490;-72
2023/03/14 14:24:00;;;;;;;1.13;0.70;;;;;;;;;;5030655;28;20029;-72
2023/03/14 14:26:27;;;;;;;1.08;0.50;;;;;;;;;;5030432;28;20029;-72
2023/03/14 14:29:04;;;;;;;1.70;0.95;;;;;;;;;;5030343;28;20037;-72
2023/03/14 14:31:30;;;;;;;2.42;1.58;;;;;;;;;;5030617;28;20517;-72
2023/03/14 14:34:01;;;;;;;2.60;1.50;;;;;;;;;;5031530;28;20031;-72
2023/03/14 14:36:27;;;;;;;2.17;0.75;;;;;;;;;;5031357;28;20033;-72
2023/03/14 14:39:14;;;;;;;0.50;0.50;;;;;;;;;;5030566;28;20030;-72
2023/03/14 14:41:41;;;;;;;2.88;1.30;;;;;;;;;;5031053;28;20375;-72
2023/03/14 14:44:12;;;;;;;2.22;0.90;;;;;;;;;;5030758;28;20046;-73
2023/03/14 14:46:38;;;;;;;;;;;;;;;;;;5031183;28;20512;-72
2023/03/14 14:49:09;;;;;;;3.08;1.30;;;;;;;;;;5031602;28;19954;-72